sensor_id;sensor_type;location;lat;lon;timestamp;P1;durP1;ratioP1;P2;durP2;ratioP2
53843;SDS011;39744;53.314;5.710;2022-10-28T00:02:06;23.45;;;10.10;;
53843;SDS011;39744;53.314;5.710;2022-10-28T00:04:32;21.73;;;10.18;;
53843;SDS011;39744;53.314;5.710;2022-10-28T00:06:57;18.40;;;9.70;;
53843;SDS011;39744;53.314;5.710;2022-10-28T00:09:23;20.08;;;9.55;;
53843;SDS011;39744;53.314;5.710;2022-10-28T00:11:49;19.05;;;10.60;;
53843;SDS011;39744;53.314;5.710;2022-10-28T00:14:14;19.70;;;9.98;;
53843;SDS011;39744;53.314;5.710;2022-10-28T00:16:40;21.65;;;10.30;;
53843;SDS011;39744;53.314;5.710;2022-10-28T00:19:06;25.67;;;10.82;;
53843;SDS011;39744;53.314;5.710;2022-10-28T00:21:35;22.95;;;9.60;;
53843;SDS011;39744;53.314;5.710;2022-10-28T00:24:03;17.25;;;9.98;;
53843;SDS011;39744;53.314;5.710;2022-10-28T00:26:30;18.98;;;9.55;;
53843;SDS011;39744;53.314;5.710;2022-10-28T00:29:01;18.35;;;10.35;;
53843;SDS011;39744;53.314;5.710;2022-10-28T00:31:29;19.67;;;10.20;;
53843;SDS011;39744;53.314;5.710;2022-10-28T00:33:57;17.38;;;9.35;;
53843;SDS011;39744;53.314;5.710;2022-10-28T00:36:24;22.73;;;10.63;;
53843;SDS011;39744;53.314;5.710;2022-10-28T00:38:53;18.45;;;10.23;;
53843;SDS011;39744;53.314;5.710;2022-10-28T00:41:30;20.42;;;10.30;;
53843;SDS011;39744;53.314;5.710;2022-10-28T00:44:00;20.30;;;10.43;;
53843;SDS011;39744;53.314;5.710;2022-10-28T00:46:46;19.30;;;10.27;;
53843;SDS011;39744;53.314;5.710;2022-10-28T00:49:15;24.65;;;10.82;;
53843;SDS011;39744;53.314;5.710;2022-10-28T00:51:46;23.25;;;11.30;;
53843;SDS011;39744;53.314;5.710;2022-10-28T00:54:15;25.70;;;11.40;;
53843;SDS011;39744;53.314;5.710;2022-10-28T00:56:44;23.45;;;11.25;;
53843;SDS011;39744;53.314;5.710;2022-10-28T00:59:27;20.55;;;11.02;;
53843;SDS011;39744;53.314;5.710;2022-10-28T01:01:56;21.67;;;11.00;;
53843;SDS011;39744;53.314;5.710;2022-10-28T01:04:22;25.42;;;10.70;;
53843;SDS011;39744;53.314;5.710;2022-10-28T01:06:49;24.75;;;11.55;;
53843;SDS011;39744;53.314;5.710;2022-10-28T01:09:15;18.55;;;10.15;;
53843;SDS011;39744;53.314;5.710;2022-10-28T01:23:17;17.80;;;11.13;;
53843;SDS011;39744;53.314;5.710;2022-10-28T01:28:50;23.15;;;11.18;;
53843;SDS011;39744;53.314;5.710;2022-10-28T01:34:28;26.00;;;11.68;;
53843;SDS011;39744;53.314;5.710;2022-10-28T01:37:33;21.88;;;12.07;;
53843;SDS011;39744;53.314;5.710;2022-10-28T01:40:09;22.70;;;11.90;;
53843;SDS011;39744;53.314;5.710;2022-10-28T01:42:45;19.63;;;11.00;;
53843;SDS011;39744;53.314;5.710;2022-10-28T01:45:33;22.67;;;11.70;;
53843;SDS011;39744;53.314;5.710;2022-10-28T01:48:25;20.63;;;11.63;;
53843;SDS011;39744;53.314;5.710;2022-10-28T01:51:00;26.77;;;12.02;;
53843;SDS011;39744;53.314;5.710;2022-10-28T01:53:32;18.80;;;11.25;;
53843;SDS011;39744;53.314;5.710;2022-10-28T01:56:04;20.15;;;10.98;;
53843;SDS011;39744;53.314;5.710;2022-10-28T01:58:34;23.90;;;10.63;;
53843;SDS011;39744;53.314;5.710;2022-10-28T02:01:03;22.02;;;11.27;;
53843;SDS011;39744;53.314;5.710;2022-10-28T02:03:30;19.35;;;9.95;;
53843;SDS011;39744;53.314;5.710;2022-10-28T02:05:56;22.58;;;10.85;;
53843;SDS011;39744;53.314;5.710;2022-10-28T02:11:17;14.57;;;9.77;;
53843;SDS011;39744;53.314;5.710;2022-10-28T02:25:30;27.30;;;12.43;;
53843;SDS011;39744;53.314;5.710;2022-10-28T02:28:04;22.38;;;11.65;;
53843;SDS011;39744;53.314;5.710;2022-10-28T02:30:34;20.40;;;11.35;;
53843;SDS011;39744;53.314;5.710;2022-10-28T02:33:03;19.92;;;10.85;;
53843;SDS011;39744;53.314;5.710;2022-10-28T02:35:38;22.13;;;12.05;;
53843;SDS011;39744;53.314;5.710;2022-10-28T02:38:16;20.67;;;11.77;;
53843;SDS011;39744;53.314;5.710;2022-10-28T02:40:47;23.48;;;11.27;;
53843;SDS011;39744;53.314;5.710;2022-10-28T02:43:17;23.00;;;11.82;;
53843;SDS011;39744;53.314;5.710;2022-10-28T02:45:46;30.02;;;12.23;;
53843;SDS011;39744;53.314;5.710;2022-10-28T02:48:26;23.00;;;11.23;;
53843;SDS011;39744;53.314;5.710;2022-10-28T02:51:02;23.95;;;12.55;;
53843;SDS011;39744;53.314;5.710;2022-10-28T02:56:23;20.20;;;11.40;;
53843;SDS011;39744;53.314;5.710;2022-10-28T02:58:48;21.88;;;11.23;;
53843;SDS011;39744;53.314;5.710;2022-10-28T03:01:14;21.83;;;10.93;;
53843;SDS011;39744;53.314;5.710;2022-10-28T03:03:40;25.92;;;11.32;;
53843;SDS011;39744;53.314;5.710;2022-10-28T03:06:06;23.60;;;11.25;;
53843;SDS011;39744;53.314;5.710;2022-10-28T03:08:32;21.33;;;11.32;;
53843;SDS011;39744;53.314;5.710;2022-10-28T03:10:58;21.92;;;11.25;;
53843;SDS011;39744;53.314;5.710;2022-10-28T03:13:23;24.73;;;11.45;;
53843;SDS011;39744;53.314;5.710;2022-10-28T03:15:49;22.70;;;11.40;;
53843;SDS011;39744;53.314;5.710;2022-10-28T03:18:15;23.52;;;11.10;;
53843;SDS011;39744;53.314;5.710;2022-10-28T03:20:40;25.83;;;12.05;;
53843;SDS011;39744;53.314;5.710;2022-10-28T03:23:06;24.48;;;11.85;;
53843;SDS011;39744;53.314;5.710;2022-10-28T03:25:31;20.88;;;10.75;;
53843;SDS011;39744;53.314;5.710;2022-10-28T03:27:57;29.33;;;12.85;;
53843;SDS011;39744;53.314;5.710;2022-10-28T03:30:23;19.77;;;11.30;;
53843;SDS011;39744;53.314;5.710;2022-10-28T03:32:48;28.25;;;11.02;;
53843;SDS011;39744;53.314;5.710;2022-10-28T03:35:14;22.70;;;11.15;;
53843;SDS011;39744;53.314;5.710;2022-10-28T03:37:40;21.40;;;10.98;;
53843;SDS011;39744;53.314;5.710;2022-10-28T03:40:07;24.45;;;10.90;;
53843;SDS011;39744;53.314;5.710;2022-10-28T03:42:34;23.05;;;11.27;;
53843;SDS011;39744;53.314;5.710;2022-10-28T03:44:59;23.45;;;11.07;;
53843;SDS011;39744;53.314;5.710;2022-10-28T03:47:25;20.95;;;11.30;;
53843;SDS011;39744;53.314;5.710;2022-10-28T03:49:50;27.10;;;11.68;;
53843;SDS011;39744;53.314;5.710;2022-10-28T03:52:16;19.25;;;11.25;;
53843;SDS011;39744;53.314;5.710;2022-10-28T03:54:42;24.83;;;11.55;;
53843;SDS011;39744;53.314;5.710;2022-10-28T03:57:08;27.25;;;11.60;;
53843;SDS011;39744;53.314;5.710;2022-10-28T03:59:34;22.98;;;12.07;;
53843;SDS011;39744;53.314;5.710;2022-10-28T04:01:59;21.55;;;11.98;;
53843;SDS011;39744;53.314;5.710;2022-10-28T04:04:25;26.58;;;12.27;;
53843;SDS011;39744;53.314;5.710;2022-10-28T04:06:51;25.10;;;11.60;;
53843;SDS011;39744;53.314;5.710;2022-10-28T04:09:16;23.58;;;11.70;;
53843;SDS011;39744;53.314;5.710;2022-10-28T04:11:42;25.40;;;12.25;;
53843;SDS011;39744;53.314;5.710;2022-10-28T04:14:07;22.27;;;11.75;;
53843;SDS011;39744;53.314;5.710;2022-10-28T04:16:33;24.75;;;11.30;;
53843;SDS011;39744;53.314;5.710;2022-10-28T04:18:58;23.70;;;10.98;;
53843;SDS011;39744;53.314;5.710;2022-10-28T04:21:24;21.52;;;11.27;;
53843;SDS011;39744;53.314;5.710;2022-10-28T04:23:50;19.42;;;10.60;;
53843;SDS011;39744;53.314;5.710;2022-10-28T04:26:15;21.48;;;10.73;;
53843;SDS011;39744;53.314;5.710;2022-10-28T04:28:41;21.52;;;10.63;;
53843;SDS011;39744;53.314;5.710;2022-10-28T04:31:07;20.38;;;9.90;;
53843;SDS011;39744;53.314;5.710;2022-10-28T04:33:34;22.90;;;11.10;;
53843;SDS011;39744;53.314;5.710;2022-10-28T04:35:59;24.50;;;10.50;;
53843;SDS011;39744;53.314;5.710;2022-10-28T04:38:25;21.73;;;10.95;;
53843;SDS011;39744;53.314;5.710;2022-10-28T04:40:50;25.65;;;12.05;;
53843;SDS011;39744;53.314;5.710;2022-10-28T04:43:16;19.33;;;11.05;;
53843;SDS011;39744;53.314;5.710;2022-10-28T04:45:42;19.95;;;11.85;;
53843;SDS011;39744;53.314;5.710;2022-10-28T04:48:08;25.30;;;12.73;;
53843;SDS011;39744;53.314;5.710;2022-10-28T04:50:34;26.65;;;11.70;;
53843;SDS011;39744;53.314;5.710;2022-10-28T04:53:00;25.92;;;12.38;;
53843;SDS011;39744;53.314;5.710;2022-10-28T04:55:26;24.10;;;12.15;;
53843;SDS011;39744;53.314;5.710;2022-10-28T04:57:55;20.30;;;11.63;;
53843;SDS011;39744;53.314;5.710;2022-10-28T05:00:22;21.42;;;11.43;;
53843;SDS011;39744;53.314;5.710;2022-10-28T05:02:49;23.08;;;13.23;;
53843;SDS011;39744;53.314;5.710;2022-10-28T05:05:15;25.65;;;12.60;;
53843;SDS011;39744;53.314;5.710;2022-10-28T05:07:41;21.33;;;11.77;;
53843;SDS011;39744;53.314;5.710;2022-10-28T05:10:06;30.27;;;13.85;;
53843;SDS011;39744;53.314;5.710;2022-10-28T05:12:32;24.52;;;12.50;;
53843;SDS011;39744;53.314;5.710;2022-10-28T05:14:58;28.90;;;13.00;;
53843;SDS011;39744;53.314;5.710;2022-10-28T05:17:24;27.88;;;12.70;;
53843;SDS011;39744;53.314;5.710;2022-10-28T05:19:49;27.65;;;11.68;;
53843;SDS011;39744;53.314;5.710;2022-10-28T05:22:15;20.65;;;11.57;;
53843;SDS011;39744;53.314;5.710;2022-10-28T05:24:40;24.98;;;12.20;;
53843;SDS011;39744;53.314;5.710;2022-10-28T05:27:06;26.08;;;12.38;;
53843;SDS011;39744;53.314;5.710;2022-10-28T05:29:32;24.00;;;11.88;;
53843;SDS011;39744;53.314;5.710;2022-10-28T05:31:57;30.67;;;12.32;;
53843;SDS011;39744;53.314;5.710;2022-10-28T05:34:23;30.45;;;12.30;;
53843;SDS011;39744;53.314;5.710;2022-10-28T05:36:49;27.30;;;12.68;;
53843;SDS011;39744;53.314;5.710;2022-10-28T05:39:15;24.98;;;12.32;;
53843;SDS011;39744;53.314;5.710;2022-10-28T05:41:41;24.77;;;11.75;;
53843;SDS011;39744;53.314;5.710;2022-10-28T05:44:07;25.92;;;11.50;;
53843;SDS011;39744;53.314;5.710;2022-10-28T05:46:33;26.58;;;13.15;;
53843;SDS011;39744;53.314;5.710;2022-10-28T05:48:58;26.20;;;11.63;;
53843;SDS011;39744;53.314;5.710;2022-10-28T05:51:24;21.33;;;11.75;;
53843;SDS011;39744;53.314;5.710;2022-10-28T05:53:50;23.90;;;12.60;;
53843;SDS011;39744;53.314;5.710;2022-10-28T05:56:18;24.90;;;12.25;;
53843;SDS011;39744;53.314;5.710;2022-10-28T05:58:44;26.98;;;11.85;;
53843;SDS011;39744;53.314;5.710;2022-10-28T06:01:09;21.23;;;11.77;;
53843;SDS011;39744;53.314;5.710;2022-10-28T06:03:35;26.73;;;12.32;;
53843;SDS011;39744;53.314;5.710;2022-10-28T06:06:01;24.35;;;12.23;;
53843;SDS011;39744;53.314;5.710;2022-10-28T06:08:26;21.77;;;12.85;;
53843;SDS011;39744;53.314;5.710;2022-10-28T06:10:52;22.25;;;12.25;;
53843;SDS011;39744;53.314;5.710;2022-10-28T06:13:19;25.23;;;12.45;;
53843;SDS011;39744;53.314;5.710;2022-10-28T06:15:51;24.60;;;12.25;;
53843;SDS011;39744;53.314;5.710;2022-10-28T06:18:18;21.98;;;11.52;;
53843;SDS011;39744;53.314;5.710;2022-10-28T06:20:49;24.58;;;11.60;;
53843;SDS011;39744;53.314;5.710;2022-10-28T06:23:19;23.48;;;11.40;;
53843;SDS011;39744;53.314;5.710;2022-10-28T06:25:44;21.42;;;11.63;;
53843;SDS011;39744;53.314;5.710;2022-10-28T06:28:10;24.55;;;11.40;;
53843;SDS011;39744;53.314;5.710;2022-10-28T06:30:35;25.30;;;11.43;;
53843;SDS011;39744;53.314;5.710;2022-10-28T06:33:01;22.27;;;12.23;;
53843;SDS011;39744;53.314;5.710;2022-10-28T06:35:26;23.85;;;11.68;;
53843;SDS011;39744;53.314;5.710;2022-10-28T06:37:55;24.38;;;10.98;;
53843;SDS011;39744;53.314;5.710;2022-10-28T06:40:22;24.13;;;12.55;;
53843;SDS011;39744;53.314;5.710;2022-10-28T06:42:55;23.52;;;12.25;;
53843;SDS011;39744;53.314;5.710;2022-10-28T06:45:25;23.30;;;12.88;;
53843;SDS011;39744;53.314;5.710;2022-10-28T06:47:55;26.20;;;12.82;;
53843;SDS011;39744;53.314;5.710;2022-10-28T06:50:22;25.58;;;12.63;;
53843;SDS011;39744;53.314;5.710;2022-10-28T06:52:48;24.38;;;12.43;;
53843;SDS011;39744;53.314;5.710;2022-10-28T06:55:13;25.58;;;12.25;;
53843;SDS011;39744;53.314;5.710;2022-10-28T06:57:39;28.65;;;13.15;;
53843;SDS011;39744;53.314;5.710;2022-10-28T07:00:05;26.42;;;12.45;;
53843;SDS011;39744;53.314;5.710;2022-10-28T07:02:31;21.40;;;11.75;;
53843;SDS011;39744;53.314;5.710;2022-10-28T07:04:56;24.70;;;13.18;;
53843;SDS011;39744;53.314;5.710;2022-10-28T07:07:22;22.98;;;12.20;;
53843;SDS011;39744;53.314;5.710;2022-10-28T07:09:48;22.75;;;13.07;;
53843;SDS011;39744;53.314;5.710;2022-10-28T07:12:13;23.00;;;12.10;;
53843;SDS011;39744;53.314;5.710;2022-10-28T07:14:39;28.23;;;12.35;;
53843;SDS011;39744;53.314;5.710;2022-10-28T07:17:04;29.65;;;12.75;;
53843;SDS011;39744;53.314;5.710;2022-10-28T07:19:30;22.85;;;12.00;;
53843;SDS011;39744;53.314;5.710;2022-10-28T07:21:56;28.48;;;12.43;;
53843;SDS011;39744;53.314;5.710;2022-10-28T07:24:21;23.80;;;11.73;;
53843;SDS011;39744;53.314;5.710;2022-10-28T07:26:47;22.30;;;11.63;;
53843;SDS011;39744;53.314;5.710;2022-10-28T07:29:13;24.40;;;11.90;;
53843;SDS011;39744;53.314;5.710;2022-10-28T07:31:39;25.70;;;11.73;;
53843;SDS011;39744;53.314;5.710;2022-10-28T07:34:05;24.20;;;11.90;;
53843;SDS011;39744;53.314;5.710;2022-10-28T07:36:31;25.05;;;12.13;;
53843;SDS011;39744;53.314;5.710;2022-10-28T07:38:56;24.13;;;11.07;;
53843;SDS011;39744;53.314;5.710;2022-10-28T07:41:22;23.52;;;12.45;;
53843;SDS011;39744;53.314;5.710;2022-10-28T07:43:48;26.05;;;11.57;;
53843;SDS011;39744;53.314;5.710;2022-10-28T07:46:14;24.00;;;11.48;;
53843;SDS011;39744;53.314;5.710;2022-10-28T07:48:41;22.33;;;11.77;;
53843;SDS011;39744;53.314;5.710;2022-10-28T07:51:07;22.52;;;11.35;;
53843;SDS011;39744;53.314;5.710;2022-10-28T07:53:34;22.00;;;11.50;;
53843;SDS011;39744;53.314;5.710;2022-10-28T07:56:01;24.70;;;11.18;;
53843;SDS011;39744;53.314;5.710;2022-10-28T07:58:29;22.08;;;11.48;;
53843;SDS011;39744;53.314;5.710;2022-10-28T08:00:55;20.08;;;10.93;;
53843;SDS011;39744;53.314;5.710;2022-10-28T08:03:21;22.70;;;11.70;;
53843;SDS011;39744;53.314;5.710;2022-10-28T08:05:48;20.70;;;11.02;;
53843;SDS011;39744;53.314;5.710;2022-10-28T08:08:14;19.40;;;10.90;;
53843;SDS011;39744;53.314;5.710;2022-10-28T08:10:40;23.38;;;11.00;;
53843;SDS011;39744;53.314;5.710;2022-10-28T08:13:05;24.98;;;10.70;;
53843;SDS011;39744;53.314;5.710;2022-10-28T08:15:31;19.38;;;11.25;;
53843;SDS011;39744;53.314;5.710;2022-10-28T08:17:57;21.50;;;10.85;;
53843;SDS011;39744;53.314;5.710;2022-10-28T08:20:23;25.85;;;11.93;;
53843;SDS011;39744;53.314;5.710;2022-10-28T08:22:48;22.02;;;10.70;;
53843;SDS011;39744;53.314;5.710;2022-10-28T08:25:14;25.40;;;11.40;;
53843;SDS011;39744;53.314;5.710;2022-10-28T08:27:40;22.85;;;10.20;;
53843;SDS011;39744;53.314;5.710;2022-10-28T08:30:06;20.02;;;10.45;;
53843;SDS011;39744;53.314;5.710;2022-10-28T08:32:33;18.35;;;10.75;;
53843;SDS011;39744;53.314;5.710;2022-10-28T08:34:59;19.73;;;10.30;;
53843;SDS011;39744;53.314;5.710;2022-10-28T08:37:25;23.23;;;11.05;;
53843;SDS011;39744;53.314;5.710;2022-10-28T08:39:50;20.80;;;10.13;;
53843;SDS011;39744;53.314;5.710;2022-10-28T08:50:46;23.58;;;9.55;;
53843;SDS011;39744;53.314;5.710;2022-10-28T08:56:23;21.40;;;9.52;;
53843;SDS011;39744;53.314;5.710;2022-10-28T08:58:54;19.35;;;8.82;;
53843;SDS011;39744;53.314;5.710;2022-10-28T09:04:27;25.27;;;9.13;;
53843;SDS011;39744;53.314;5.710;2022-10-28T09:07:03;22.23;;;9.75;;
53843;SDS011;39744;53.314;5.710;2022-10-28T09:09:30;19.00;;;8.73;;
53843;SDS011;39744;53.314;5.710;2022-10-28T09:12:02;18.50;;;9.70;;
53843;SDS011;39744;53.314;5.710;2022-10-28T09:22:56;19.85;;;8.75;;
53843;SDS011;39744;53.314;5.710;2022-10-28T09:25:31;16.25;;;8.63;;
53843;SDS011;39744;53.314;5.710;2022-10-28T09:30:54;20.02;;;9.75;;
53843;SDS011;39744;53.314;5.710;2022-10-28T09:35:58;16.95;;;8.73;;
53843;SDS011;39744;53.314;5.710;2022-10-28T09:38:27;22.85;;;9.20;;
53843;SDS011;39744;53.314;5.710;2022-10-28T09:41:18;17.90;;;9.05;;
53843;SDS011;39744;53.314;5.710;2022-10-28T09:43:49;20.02;;;9.90;;
53843;SDS011;39744;53.314;5.710;2022-10-28T09:46:19;15.70;;;8.48;;
53843;SDS011;39744;53.314;5.710;2022-10-28T09:48:49;23.17;;;9.38;;
53843;SDS011;39744;53.314;5.710;2022-10-28T09:51:20;17.85;;;9.00;;
53843;SDS011;39744;53.314;5.710;2022-10-28T09:53:58;20.38;;;8.90;;
53843;SDS011;39744;53.314;5.710;2022-10-28T09:56:26;18.08;;;8.80;;
53843;SDS011;39744;53.314;5.710;2022-10-28T09:58:53;21.23;;;8.93;;
53843;SDS011;39744;53.314;5.710;2022-10-28T10:01:21;21.17;;;9.18;;
53843;SDS011;39744;53.314;5.710;2022-10-28T10:03:47;19.02;;;9.18;;
53843;SDS011;39744;53.314;5.710;2022-10-28T10:06:18;17.67;;;8.57;;
53843;SDS011;39744;53.314;5.710;2022-10-28T10:08:57;20.80;;;8.45;;
53843;SDS011;39744;53.314;5.710;2022-10-28T10:11:58;16.65;;;8.80;;
53843;SDS011;39744;53.314;5.710;2022-10-28T10:14:18;18.33;;;8.60;;
53843;SDS011;39744;53.314;5.710;2022-10-28T10:16:53;21.63;;;8.75;;
53843;SDS011;39744;53.314;5.710;2022-10-28T10:19:25;19.13;;;8.35;;
53843;SDS011;39744;53.314;5.710;2022-10-28T10:21:51;20.20;;;8.98;;
53843;SDS011;39744;53.314;5.710;2022-10-28T10:24:28;15.77;;;8.45;;
53843;SDS011;39744;53.314;5.710;2022-10-28T10:26:55;17.85;;;8.57;;
53843;SDS011;39744;53.314;5.710;2022-10-28T10:29:24;19.63;;;8.32;;
53843;SDS011;39744;53.314;5.710;2022-10-28T10:32:02;20.33;;;7.75;;
53843;SDS011;39744;53.314;5.710;2022-10-28T10:34:37;20.60;;;8.20;;
53843;SDS011;39744;53.314;5.710;2022-10-28T10:37:19;19.23;;;8.77;;
53843;SDS011;39744;53.314;5.710;2022-10-28T10:39:57;18.08;;;7.78;;
53843;SDS011;39744;53.314;5.710;2022-10-28T10:42:26;16.63;;;7.55;;
53843;SDS011;39744;53.314;5.710;2022-10-28T10:48:03;23.30;;;8.05;;
53843;SDS011;39744;53.314;5.710;2022-10-28T10:50:33;17.58;;;7.88;;
53843;SDS011;39744;53.314;5.710;2022-10-28T10:53:02;19.92;;;7.38;;
53843;SDS011;39744;53.314;5.710;2022-10-28T10:57:59;21.00;;;8.23;;
53843;SDS011;39744;53.314;5.710;2022-10-28T11:00:35;15.98;;;7.75;;
53843;SDS011;39744;53.314;5.710;2022-10-28T11:03:05;20.10;;;7.32;;
53843;SDS011;39744;53.314;5.710;2022-10-28T11:05:55;16.25;;;6.55;;
53843;SDS011;39744;53.314;5.710;2022-10-28T11:08:27;19.48;;;6.78;;
53843;SDS011;39744;53.314;5.710;2022-10-28T11:11:11;20.58;;;6.68;;
53843;SDS011;39744;53.314;5.710;2022-10-28T11:13:42;16.65;;;7.13;;
53843;SDS011;39744;53.314;5.710;2022-10-28T11:16:20;18.80;;;6.55;;
53843;SDS011;39744;53.314;5.710;2022-10-28T11:18:48;14.75;;;6.30;;
53843;SDS011;39744;53.314;5.710;2022-10-28T11:21:22;14.73;;;5.93;;
53843;SDS011;39744;53.314;5.710;2022-10-28T11:24:00;17.90;;;6.68;;
53843;SDS011;39744;53.314;5.710;2022-10-28T11:26:39;17.50;;;7.28;;
53843;SDS011;39744;53.314;5.710;2022-10-28T11:29:12;14.68;;;6.18;;
53843;SDS011;39744;53.314;5.710;2022-10-28T11:37:11;13.52;;;6.00;;
53843;SDS011;39744;53.314;5.710;2022-10-28T11:48:30;19.50;;;6.25;;
53843;SDS011;39744;53.314;5.710;2022-10-28T11:51:27;15.38;;;5.68;;
53843;SDS011;39744;53.314;5.710;2022-10-28T11:57:23;17.52;;;6.78;;
53843;SDS011;39744;53.314;5.710;2022-10-28T12:05:19;14.85;;;6.30;;
53843;SDS011;39744;53.314;5.710;2022-10-28T12:07:54;17.90;;;6.10;;
53843;SDS011;39744;53.314;5.710;2022-10-28T12:23:35;14.63;;;6.05;;
53843;SDS011;39744;53.314;5.710;2022-10-28T12:26:04;15.07;;;5.70;;
53843;SDS011;39744;53.314;5.710;2022-10-28T12:31:16;18.80;;;5.75;;
53843;SDS011;39744;53.314;5.710;2022-10-28T12:34:03;15.88;;;6.07;;
53843;SDS011;39744;53.314;5.710;2022-10-28T12:36:37;17.42;;;6.13;;
53843;SDS011;39744;53.314;5.710;2022-10-28T12:39:17;16.95;;;6.65;;
53843;SDS011;39744;53.314;5.710;2022-10-28T12:41:58;14.68;;;6.15;;
53843;SDS011;39744;53.314;5.710;2022-10-28T12:44:35;16.08;;;6.05;;
53843;SDS011;39744;53.314;5.710;2022-10-28T12:47:16;16.65;;;6.18;;
53843;SDS011;39744;53.314;5.710;2022-10-28T12:49:52;18.90;;;6.30;;
53843;SDS011;39744;53.314;5.710;2022-10-28T12:57:37;12.18;;;6.15;;
53843;SDS011;39744;53.314;5.710;2022-10-28T13:02:51;17.70;;;6.20;;
53843;SDS011;39744;53.314;5.710;2022-10-28T13:05:25;18.27;;;6.45;;
53843;SDS011;39744;53.314;5.710;2022-10-28T13:10:46;17.20;;;5.90;;
53843;SDS011;39744;53.314;5.710;2022-10-28T13:19:49;14.57;;;6.57;;
53843;SDS011;39744;53.314;5.710;2022-10-28T13:22:33;20.33;;;7.00;;
53843;SDS011;39744;53.314;5.710;2022-10-28T13:28:01;18.40;;;6.47;;
53843;SDS011;39744;53.314;5.710;2022-10-28T13:30:27;16.35;;;6.80;;
53843;SDS011;39744;53.314;5.710;2022-10-28T13:35:29;19.02;;;6.20;;
53843;SDS011;39744;53.314;5.710;2022-10-28T13:37:56;17.58;;;6.30;;
53843;SDS011;39744;53.314;5.710;2022-10-28T13:42:56;19.35;;;7.30;;
53843;SDS011;39744;53.314;5.710;2022-10-28T13:53:37;18.45;;;7.38;;
53843;SDS011;39744;53.314;5.710;2022-10-28T13:59:39;18.83;;;6.85;;
53843;SDS011;39744;53.314;5.710;2022-10-28T14:04:13;16.52;;;7.35;;
53843;SDS011;39744;53.314;5.710;2022-10-28T14:06:45;19.35;;;7.30;;
53843;SDS011;39744;53.314;5.710;2022-10-28T14:09:18;14.30;;;6.13;;
53843;SDS011;39744;53.314;5.710;2022-10-28T14:14:49;17.05;;;6.57;;
53843;SDS011;39744;53.314;5.710;2022-10-28T14:17:37;16.90;;;6.30;;
53843;SDS011;39744;53.314;5.710;2022-10-28T14:20:05;18.75;;;6.47;;
53843;SDS011;39744;53.314;5.710;2022-10-28T14:22:51;18.20;;;6.60;;
53843;SDS011;39744;53.314;5.710;2022-10-28T14:33:36;22.05;;;5.93;;
53843;SDS011;39744;53.314;5.710;2022-10-28T14:43:46;18.30;;;5.53;;
53843;SDS011;39744;53.314;5.710;2022-10-28T14:49:12;19.40;;;5.18;;
53843;SDS011;39744;53.314;5.710;2022-10-28T14:51:44;19.45;;;5.85;;
53843;SDS011;39744;53.314;5.710;2022-10-28T14:54:14;19.00;;;5.43;;
53843;SDS011;39744;53.314;5.710;2022-10-28T14:56:43;17.27;;;5.80;;
53843;SDS011;39744;53.314;5.710;2022-10-28T14:59:30;20.75;;;6.15;;
53843;SDS011;39744;53.314;5.710;2022-10-28T15:02:02;16.08;;;5.68;;
53843;SDS011;39744;53.314;5.710;2022-10-28T15:04:34;18.15;;;5.63;;
53843;SDS011;39744;53.314;5.710;2022-10-28T15:07:01;19.08;;;5.47;;
53843;SDS011;39744;53.314;5.710;2022-10-28T15:09:28;18.05;;;5.32;;
53843;SDS011;39744;53.314;5.710;2022-10-28T15:12:05;20.88;;;5.88;;
53843;SDS011;39744;53.314;5.710;2022-10-28T15:14:36;27.27;;;5.95;;
53843;SDS011;39744;53.314;5.710;2022-10-28T15:17:11;21.77;;;5.47;;
53843;SDS011;39744;53.314;5.710;2022-10-28T15:19:39;17.00;;;4.78;;
53843;SDS011;39744;53.314;5.710;2022-10-28T15:22:11;20.55;;;6.20;;
53843;SDS011;39744;53.314;5.710;2022-10-28T15:25:01;21.27;;;5.50;;
53843;SDS011;39744;53.314;5.710;2022-10-28T15:27:29;15.77;;;5.38;;
53843;SDS011;39744;53.314;5.710;2022-10-28T15:29:56;27.23;;;6.07;;
53843;SDS011;39744;53.314;5.710;2022-10-28T15:34:50;30.88;;;6.05;;
53843;SDS011;39744;53.314;5.710;2022-10-28T15:37:16;20.42;;;5.60;;
53843;SDS011;39744;53.314;5.710;2022-10-28T15:39:45;25.52;;;6.50;;
53843;SDS011;39744;53.314;5.710;2022-10-28T15:45:01;25.75;;;6.35;;
53843;SDS011;39744;53.314;5.710;2022-10-28T15:47:28;25.70;;;6.03;;
53843;SDS011;39744;53.314;5.710;2022-10-28T15:50:01;22.45;;;6.28;;
53843;SDS011;39744;53.314;5.710;2022-10-28T15:52:45;23.42;;;5.97;;
53843;SDS011;39744;53.314;5.710;2022-10-28T15:57:46;25.15;;;6.43;;
53843;SDS011;39744;53.314;5.710;2022-10-28T16:00:18;24.83;;;6.53;;
53843;SDS011;39744;53.314;5.710;2022-10-28T16:02:52;20.15;;;6.00;;
53843;SDS011;39744;53.314;5.710;2022-10-28T16:08:16;27.65;;;6.88;;
53843;SDS011;39744;53.314;5.710;2022-10-28T16:10:46;23.38;;;6.65;;
53843;SDS011;39744;53.314;5.710;2022-10-28T16:13:18;17.75;;;5.72;;
53843;SDS011;39744;53.314;5.710;2022-10-28T16:16:09;27.33;;;6.95;;
53843;SDS011;39744;53.314;5.710;2022-10-28T16:19:00;18.23;;;6.15;;
53843;SDS011;39744;53.314;5.710;2022-10-28T16:21:31;24.98;;;6.38;;
53843;SDS011;39744;53.314;5.710;2022-10-28T16:23:58;23.60;;;6.30;;
53843;SDS011;39744;53.314;5.710;2022-10-28T16:26:27;22.88;;;5.65;;
53843;SDS011;39744;53.314;5.710;2022-10-28T16:28:54;21.60;;;6.97;;
53843;SDS011;39744;53.314;5.710;2022-10-28T16:31:20;31.10;;;6.50;;
53843;SDS011;39744;53.314;5.710;2022-10-28T16:33:49;24.35;;;6.93;;
53843;SDS011;39744;53.314;5.710;2022-10-28T16:36:15;22.23;;;6.38;;
53843;SDS011;39744;53.314;5.710;2022-10-28T16:38:41;22.63;;;6.25;;
53843;SDS011;39744;53.314;5.710;2022-10-28T16:41:10;28.40;;;6.97;;
53843;SDS011;39744;53.314;5.710;2022-10-28T16:46:05;25.42;;;6.93;;
53843;SDS011;39744;53.314;5.710;2022-10-28T16:48:31;27.70;;;6.82;;
53843;SDS011;39744;53.314;5.710;2022-10-28T16:51:00;18.58;;;5.90;;
53843;SDS011;39744;53.314;5.710;2022-10-28T16:53:29;24.60;;;7.00;;
53843;SDS011;39744;53.314;5.710;2022-10-28T16:55:54;20.85;;;6.50;;
53843;SDS011;39744;53.314;5.710;2022-10-28T16:58:26;24.75;;;6.70;;
53843;SDS011;39744;53.314;5.710;2022-10-28T17:00:53;28.70;;;7.50;;
53843;SDS011;39744;53.314;5.710;2022-10-28T17:03:19;27.23;;;7.07;;
53843;SDS011;39744;53.314;5.710;2022-10-28T17:05:45;21.98;;;6.15;;
53843;SDS011;39744;53.314;5.710;2022-10-28T17:08:11;23.08;;;7.18;;
53843;SDS011;39744;53.314;5.710;2022-10-28T17:10:40;20.88;;;6.47;;
53843;SDS011;39744;53.314;5.710;2022-10-28T17:13:10;23.05;;;6.75;;
53843;SDS011;39744;53.314;5.710;2022-10-28T17:15:37;30.88;;;7.85;;
53843;SDS011;39744;53.314;5.710;2022-10-28T17:18:03;29.02;;;7.47;;
53843;SDS011;39744;53.314;5.710;2022-10-28T17:20:29;30.67;;;7.65;;
53843;SDS011;39744;53.314;5.710;2022-10-28T17:22:55;31.92;;;7.63;;
53843;SDS011;39744;53.314;5.710;2022-10-28T17:25:22;27.95;;;7.10;;
53843;SDS011;39744;53.314;5.710;2022-10-28T17:27:48;27.65;;;7.38;;
53843;SDS011;39744;53.314;5.710;2022-10-28T17:30:15;28.63;;;6.68;;
53843;SDS011;39744;53.314;5.710;2022-10-28T17:32:42;26.00;;;6.97;;
53843;SDS011;39744;53.314;5.710;2022-10-28T17:35:08;25.73;;;7.50;;
53843;SDS011;39744;53.314;5.710;2022-10-28T17:37:34;33.15;;;7.53;;
53843;SDS011;39744;53.314;5.710;2022-10-28T17:40:00;35.42;;;7.22;;
53843;SDS011;39744;53.314;5.710;2022-10-28T17:42:26;30.15;;;8.60;;
53843;SDS011;39744;53.314;5.710;2022-10-28T17:44:52;29.10;;;6.88;;